Sterlitamak, Russia
Current Conditions -  °F | °C
As of 3:30 AM on Thursday 27 Nov 2014 (Local Time) from UWUU Reporting Station
Light Snow Light Snow  
Wind Chill: 11°   Ceiling: 1100
Heat Index: 19°   Visibility: 6mi
Dew Point: 16°   Wind: 7mph
Humidity: 86%   Direction: 320°NW
Pressure: 30.36"   Gusts: NA
Location:  53.63°N, 55.95°E
Report Text: UWUU 262230Z 32003MPS 9999 -SN OVC011 M07/M09 Q1028 82421048TEMPO 1800 SN FZDZ BKN006 640000 RMK QFE759/1013 MOD ICE INC
Loading
Personal Weather Stations






























Interactive Weather Map New forecast layout! Learn more

10-Day Weather Forecast

Advertisements
Track Severe Weather on mobile